createdAt,value
2019-05-16T00:01:25.550Z,8.15
2019-05-16T00:03:57.872Z,8.40
2019-05-16T00:06:28.429Z,8.15
2019-05-16T00:08:58.629Z,8.20
2019-05-16T00:11:28.809Z,8.70
2019-05-16T00:13:59.430Z,8.48
2019-05-16T00:16:30.343Z,8.53
2019-05-16T00:19:00.174Z,7.95
2019-05-16T00:21:30.230Z,8.88
2019-05-16T00:24:00.223Z,8.88
2019-05-16T00:26:30.225Z,8.70
2019-05-16T00:29:00.204Z,9.38
2019-05-16T00:31:30.091Z,9.60
2019-05-16T00:34:00.321Z,10.40
2019-05-16T00:36:30.114Z,10.08
2019-05-16T00:39:00.078Z,10.53
2019-05-16T00:41:30.037Z,11.88
2019-05-16T00:44:00.299Z,10.43
2019-05-16T00:46:30.106Z,11.03
2019-05-16T00:49:00.012Z,10.15
2019-05-16T00:51:30.705Z,10.63
2019-05-16T00:54:00.620Z,11.55
2019-05-16T00:56:32.449Z,11.45
2019-05-16T00:59:03.117Z,11.22
2019-05-16T01:01:32.915Z,11.05
2019-05-16T01:04:02.747Z,11.75
2019-05-16T01:06:32.550Z,11.68
2019-05-16T01:09:02.352Z,11.85
2019-05-16T01:11:32.176Z,12.20
2019-05-16T01:14:01.978Z,11.78
2019-05-16T01:16:32.308Z,11.78
2019-05-16T01:19:02.562Z,12.23
2019-05-16T01:21:32.338Z,12.05
2019-05-16T01:24:02.136Z,12.20
2019-05-16T01:26:31.956Z,11.53
2019-05-16T01:29:01.743Z,12.35
2019-05-16T01:31:32.021Z,12.23
2019-05-16T01:34:01.856Z,13.30
2019-05-16T01:36:36.667Z,13.08
2019-05-16T01:39:05.074Z,14.33
2019-05-16T01:41:34.889Z,14.93
2019-05-16T01:44:04.722Z,13.43
2019-05-16T01:46:34.686Z,13.53
2019-05-16T01:49:04.514Z,14.80
2019-05-16T01:51:37.819Z,14.03
2019-05-16T01:54:08.669Z,14.33
2019-05-16T01:56:38.941Z,13.93
2019-05-16T01:59:09.324Z,14.80
2019-05-16T02:01:39.165Z,13.98
2019-05-16T02:04:12.245Z,14.63
2019-05-16T02:06:50.851Z,14.13
2019-05-16T02:09:12.925Z,13.25
2019-05-16T02:11:42.761Z,13.85
2019-05-16T02:14:12.537Z,14.18
2019-05-16T02:16:42.679Z,13.55
2019-05-16T02:19:12.505Z,12.98
2019-05-16T02:21:42.298Z,14.35
2019-05-16T02:24:13.052Z,13.90
2019-05-16T02:26:42.942Z,13.88
2019-05-16T02:29:13.683Z,13.93
2019-05-16T02:31:44.962Z,14.38
2019-05-16T02:34:15.042Z,14.00
2019-05-16T02:36:44.831Z,11.83
2019-05-16T02:39:14.670Z,11.28
2019-05-16T02:41:46.220Z,11.22
2019-05-16T02:44:16.533Z,10.90
2019-05-16T02:46:50.679Z,10.53
2019-05-16T02:49:21.646Z,10.05
2019-05-16T02:51:51.520Z,9.75
2019-05-16T02:54:22.467Z,10.15
2019-05-16T02:56:52.364Z,10.40
2019-05-16T02:59:22.251Z,10.43
2019-05-16T03:01:53.024Z,10.53
2019-05-16T03:04:22.843Z,10.10
2019-05-16T03:06:53.546Z,10.40
2019-05-16T03:09:23.351Z,11.20
2019-05-16T03:11:54.976Z,9.75
2019-05-16T03:14:26.145Z,10.48
2019-05-16T03:17:01.042Z,11.08
2019-05-16T03:19:32.593Z,11.43
2019-05-16T03:22:05.221Z,11.65
2019-05-16T03:24:35.463Z,11.20
2019-05-16T03:27:05.290Z,10.43
2019-05-16T03:29:35.077Z,10.45
2019-05-16T03:32:04.887Z,10.63
2019-05-16T03:34:35.053Z,10.50
2019-05-16T03:37:05.401Z,9.48
2019-05-16T03:39:36.381Z,10.60
2019-05-16T03:42:06.165Z,10.60
2019-05-16T03:44:36.008Z,10.75
2019-05-16T03:47:06.242Z,10.63
2019-05-16T03:49:36.052Z,10.30
2019-05-16T03:52:06.574Z,9.40
2019-05-16T03:54:36.616Z,11.15
2019-05-16T03:57:06.669Z,11.55
2019-05-16T03:59:36.485Z,10.72
2019-05-16T04:02:06.638Z,9.93
2019-05-16T04:04:36.654Z,10.82
2019-05-16T04:07:06.590Z,10.45
2019-05-16T04:09:36.413Z,10.68
2019-05-16T04:12:06.646Z,10.58
2019-05-16T04:14:36.436Z,11.55
2019-05-16T04:17:06.392Z,10.32
2019-05-16T04:19:36.396Z,11.05
2019-05-16T04:22:10.472Z,10.50
2019-05-16T04:24:43.045Z,11.43
2019-05-16T04:27:12.892Z,11.70
2019-05-16T04:29:44.147Z,12.13
2019-05-16T04:32:14.054Z,11.25
2019-05-16T04:34:43.842Z,11.80
2019-05-16T04:37:13.965Z,12.28
2019-05-16T04:39:44.200Z,13.28
2019-05-16T04:42:15.314Z,13.10
2019-05-16T04:44:46.109Z,13.18
2019-05-16T04:47:16.079Z,12.98
2019-05-16T04:49:46.059Z,14.55
2019-05-16T04:52:15.863Z,13.53
2019-05-16T04:54:45.863Z,13.95
2019-05-16T04:57:16.004Z,15.15
2019-05-16T04:59:45.840Z,15.25
2019-05-16T05:02:16.102Z,14.98
2019-05-16T05:04:45.907Z,14.85
2019-05-16T05:07:15.799Z,15.30
2019-05-16T05:09:45.835Z,15.93
2019-05-16T05:12:15.634Z,14.78
2019-05-16T05:14:45.831Z,16.25
2019-05-16T05:17:15.805Z,16.30
2019-05-16T05:19:45.585Z,15.50
2019-05-16T05:22:19.909Z,16.60
2019-05-16T05:24:50.888Z,16.25
2019-05-16T05:27:20.619Z,15.65
2019-05-16T05:29:50.760Z,16.97
2019-05-16T05:32:20.640Z,15.95
2019-05-16T05:34:50.518Z,15.85
2019-05-16T05:37:20.702Z,16.75
2019-05-16T05:39:50.596Z,17.12
2019-05-16T05:42:20.748Z,18.07
2019-05-16T05:44:50.900Z,18.95
2019-05-16T05:47:22.071Z,18.50
2019-05-16T05:49:51.854Z,19.32
2019-05-16T05:52:21.637Z,20.97
2019-05-16T05:54:52.414Z,19.82
2019-05-16T05:57:22.220Z,21.70
2019-05-16T05:59:53.094Z,22.85
2019-05-16T06:02:23.220Z,20.95
2019-05-16T06:04:54.062Z,20.65
2019-05-16T06:07:23.844Z,20.25
2019-05-16T06:09:56.616Z,20.75
2019-05-16T06:12:25.092Z,20.25
2019-05-16T06:14:55.974Z,20.95
2019-05-16T06:17:26.777Z,21.17
2019-05-16T06:19:56.573Z,21.68
2019-05-16T06:22:32.368Z,22.27
2019-05-16T06:25:02.331Z,21.52
2019-05-16T06:27:32.118Z,21.90
2019-05-16T06:30:02.499Z,20.35
2019-05-16T06:32:32.326Z,22.17
2019-05-16T06:35:03.079Z,21.15
2019-05-16T06:37:32.884Z,21.23
2019-05-16T06:40:02.704Z,19.42
2019-05-16T06:42:32.582Z,19.23
2019-05-16T06:45:02.941Z,18.57
2019-05-16T06:47:32.777Z,20.45
2019-05-16T06:50:02.693Z,19.27
2019-05-16T06:52:32.553Z,19.77
2019-05-16T06:55:02.444Z,18.77
2019-05-16T06:57:32.245Z,19.02
2019-05-16T07:00:02.746Z,17.25
2019-05-16T07:02:34.566Z,16.57
2019-05-16T07:05:06.196Z,14.80
2019-05-16T07:07:35.988Z,16.02
2019-05-16T07:10:06.639Z,15.13
2019-05-16T07:12:36.516Z,15.18
2019-05-16T07:15:12.306Z,14.85
2019-05-16T07:17:39.964Z,16.32
2019-05-16T07:20:10.724Z,17.15
2019-05-16T07:22:40.808Z,16.73
2019-05-16T07:25:11.495Z,16.05
2019-05-16T07:27:41.365Z,16.85
2019-05-16T07:30:12.740Z,14.65
2019-05-16T07:32:42.655Z,15.93
2019-05-16T07:35:13.170Z,14.73
2019-05-16T07:37:42.983Z,16.00
2019-05-16T07:40:20.085Z,15.75
2019-05-16T07:42:45.184Z,17.65
2019-05-16T07:45:15.244Z,17.27
2019-05-16T07:47:45.076Z,15.32
2019-05-16T07:50:15.876Z,14.85
2019-05-16T07:52:45.686Z,13.62
2019-05-16T07:55:16.935Z,14.43
2019-05-16T07:57:46.741Z,13.90
2019-05-16T08:00:17.706Z,14.00
2019-05-16T08:02:47.559Z,14.30
2019-05-16T08:05:17.481Z,11.97
2019-05-16T08:07:47.773Z,10.50
2019-05-16T08:10:33.913Z,9.90
2019-05-16T08:12:51.342Z,10.00
2019-05-16T08:15:23.083Z,9.63
2019-05-16T08:17:52.884Z,9.08
2019-05-16T08:20:22.719Z,9.78
2019-05-16T08:22:54.981Z,9.20
2019-05-16T08:25:24.990Z,10.78
2019-05-16T08:27:54.800Z,10.08
2019-05-16T08:30:24.927Z,10.38
2019-05-16T08:32:54.753Z,11.18
2019-05-16T08:35:24.678Z,12.23
2019-05-16T08:37:54.877Z,12.53
2019-05-16T08:40:24.809Z,14.00
2019-05-16T08:42:54.682Z,14.07
2019-05-16T08:45:24.798Z,17.25
2019-05-16T08:47:54.714Z,13.78
2019-05-16T08:50:25.162Z,12.28
2019-05-16T08:52:55.472Z,13.93
2019-05-16T08:55:25.306Z,14.13
2019-05-16T08:57:55.104Z,12.88
2019-05-16T09:00:26.411Z,10.70
2019-05-16T09:02:56.826Z,14.28
2019-05-16T09:05:26.721Z,13.98
2019-05-16T09:08:00.860Z,15.55
2019-05-16T09:10:55.778Z,15.83
2019-05-16T09:13:06.726Z,10.28
2019-05-16T09:15:38.971Z,7.50
2019-05-16T09:18:08.916Z,7.15
2019-05-16T09:20:42.687Z,6.62
2019-05-16T09:23:11.834Z,11.80
2019-05-16T09:25:42.404Z,12.80
2019-05-16T09:28:12.193Z,8.75
2019-05-16T09:30:42.124Z,6.95
2019-05-16T09:33:12.238Z,8.20
2019-05-16T09:35:42.107Z,6.90
2019-05-16T09:38:11.960Z,6.58
2019-05-16T09:40:42.895Z,5.50
2019-05-16T09:43:12.684Z,6.28
2019-05-16T09:45:42.558Z,5.40
2019-05-16T09:48:12.538Z,6.17
2019-05-16T09:50:42.353Z,5.15
2019-05-16T09:53:12.179Z,5.95
2019-05-16T09:55:42.583Z,4.90
2019-05-16T09:58:12.391Z,4.58
2019-05-16T10:00:42.322Z,5.00
2019-05-16T10:03:12.658Z,4.67
2019-05-16T10:05:42.509Z,4.30
2019-05-16T10:08:12.339Z,3.90
2019-05-16T10:10:42.616Z,3.80
2019-05-16T10:13:12.728Z,3.70
2019-05-16T10:15:42.932Z,4.17
2019-05-16T10:18:12.734Z,3.22
2019-05-16T10:20:42.521Z,3.40
2019-05-16T10:23:14.835Z,3.87
2019-05-16T10:25:47.934Z,3.95
2019-05-16T10:28:20.110Z,3.65
2019-05-16T10:30:50.322Z,3.87
2019-05-16T10:33:20.376Z,3.12
2019-05-16T10:35:50.594Z,3.50
2019-05-16T10:38:20.384Z,3.50
2019-05-16T10:40:50.196Z,3.12
2019-05-16T10:43:20.018Z,3.27
2019-05-16T10:45:50.179Z,2.75
2019-05-16T10:48:19.970Z,2.70
2019-05-16T10:50:49.829Z,2.65
2019-05-16T10:53:43.020Z,2.92
2019-05-16T10:55:51.258Z,2.90
2019-05-16T10:58:35.426Z,2.70
2019-05-16T11:01:22.264Z,3.20
2019-05-16T11:03:27.538Z,2.90
2019-05-16T11:06:05.424Z,3.02
2019-05-16T11:08:29.355Z,3.30
2019-05-16T11:10:59.974Z,3.25
2019-05-16T11:13:29.967Z,2.98
2019-05-16T11:15:59.900Z,3.02
2019-05-16T11:18:30.120Z,2.95
2019-05-16T11:20:59.958Z,3.45
2019-05-16T11:23:31.399Z,2.98
2019-05-16T11:26:02.504Z,3.10
2019-05-16T11:28:32.404Z,2.83
2019-05-16T11:31:03.994Z,2.80
2019-05-16T11:33:37.016Z,2.98
2019-05-16T11:36:08.194Z,2.27
2019-05-16T11:38:38.279Z,2.70
2019-05-16T11:41:08.100Z,3.30
2019-05-16T11:43:38.881Z,3.17
2019-05-16T11:46:09.695Z,3.02
2019-05-16T11:48:39.902Z,2.75
2019-05-16T11:51:09.674Z,3.00
2019-05-16T11:53:39.645Z,3.08
2019-05-16T11:56:09.699Z,3.10
2019-05-16T11:58:39.700Z,2.92
2019-05-16T12:01:09.556Z,2.85
2019-05-16T12:03:39.403Z,3.00
2019-05-16T12:06:11.171Z,2.80
2019-05-16T12:08:41.914Z,2.80
2019-05-16T12:11:11.764Z,3.98
2019-05-16T12:13:41.544Z,2.50
2019-05-16T12:16:15.174Z,2.80
2019-05-16T12:18:46.329Z,2.20
2019-05-16T12:21:17.219Z,2.75
2019-05-16T12:23:47.435Z,2.80
2019-05-16T12:26:17.719Z,2.70
2019-05-16T12:28:47.922Z,2.58
2019-05-16T12:31:18.374Z,2.58
2019-05-16T12:33:48.264Z,3.10
2019-05-16T12:36:18.075Z,3.10
2019-05-16T12:38:48.430Z,3.15
2019-05-16T12:41:19.095Z,2.60
2019-05-16T12:43:53.294Z,3.33
2019-05-16T12:46:20.295Z,2.85
2019-05-16T12:48:50.821Z,3.35
2019-05-16T12:51:21.450Z,3.17
2019-05-16T12:53:51.242Z,3.80
2019-05-16T12:56:21.094Z,3.20
2019-05-16T12:58:51.702Z,3.62
2019-05-16T13:01:21.984Z,3.70
2019-05-16T13:03:53.852Z,3.77
2019-05-16T13:06:23.654Z,3.50
2019-05-16T13:08:53.749Z,3.45
2019-05-16T13:11:23.795Z,3.75
2019-05-16T13:14:03.354Z,3.70
2019-05-16T13:16:28.070Z,3.45
2019-05-16T13:18:56.963Z,4.00
2019-05-16T13:21:27.529Z,3.12
2019-05-16T13:23:59.094Z,3.62
2019-05-16T13:26:29.742Z,3.55
2019-05-16T13:28:59.823Z,3.20
2019-05-16T13:31:29.637Z,3.02
2019-05-16T13:33:59.572Z,3.27
2019-05-16T13:36:29.563Z,3.08
2019-05-16T13:38:59.584Z,2.77
2019-05-16T13:41:29.412Z,3.12
2019-05-16T13:44:13.933Z,2.95
2019-05-16T13:46:31.314Z,2.60
2019-05-16T13:49:01.136Z,3.25
2019-05-16T13:51:30.933Z,2.52
2019-05-16T13:54:01.037Z,2.80
2019-05-16T13:56:30.875Z,3.00
2019-05-16T13:59:00.668Z,2.47
2019-05-16T14:01:30.473Z,3.12
2019-05-16T14:04:00.579Z,2.87
2019-05-16T14:06:30.502Z,2.77
2019-05-16T14:09:00.502Z,2.80
2019-05-16T14:11:30.417Z,2.50
2019-05-16T14:14:00.657Z,2.60
2019-05-16T14:16:30.474Z,2.95
2019-05-16T14:19:00.622Z,2.00
2019-05-16T14:21:30.518Z,2.00
2019-05-16T14:24:01.156Z,1.90
2019-05-16T14:26:30.979Z,1.90
2019-05-16T14:29:00.780Z,1.55
2019-05-16T14:31:30.555Z,1.40
2019-05-16T14:34:00.712Z,1.50
2019-05-16T14:36:30.610Z,1.72
2019-05-16T14:39:00.641Z,1.62
2019-05-16T14:41:30.560Z,1.30
2019-05-16T14:44:00.498Z,1.30
2019-05-16T14:46:30.515Z,2.42
2019-05-16T14:49:00.347Z,1.82
2019-05-16T14:51:32.009Z,1.35
2019-05-16T14:54:02.148Z,1.52
2019-05-16T14:56:31.957Z,1.70
2019-05-16T14:59:01.755Z,1.60
2019-05-16T15:01:31.587Z,1.95
2019-05-16T15:04:01.851Z,1.92
2019-05-16T15:06:31.639Z,1.77
2019-05-16T15:09:01.426Z,1.67
2019-05-16T15:11:31.290Z,2.08
2019-05-16T15:14:01.620Z,2.15
2019-05-16T15:16:31.566Z,2.02
2019-05-16T15:19:01.386Z,1.87
2019-05-16T15:21:31.552Z,2.02
2019-05-16T15:24:01.358Z,1.52
2019-05-16T15:26:33.063Z,1.35
2019-05-16T15:29:03.274Z,1.60
2019-05-16T15:31:36.337Z,1.45
2019-05-16T15:34:05.995Z,1.40
2019-05-16T15:36:37.279Z,1.98
2019-05-16T15:39:08.749Z,1.60
2019-05-16T15:41:38.605Z,1.90
2019-05-16T15:44:09.504Z,1.82
2019-05-16T15:46:40.898Z,1.60
2019-05-16T15:49:12.388Z,1.37
2019-05-16T15:51:42.990Z,1.32
2019-05-16T15:54:17.963Z,1.50
2019-05-16T15:56:50.149Z,1.85
2019-05-16T15:59:20.632Z,1.60
2019-05-16T16:01:50.428Z,1.80
2019-05-16T16:04:20.288Z,2.27
2019-05-16T16:06:50.085Z,1.87
2019-05-16T16:09:20.523Z,1.85
2019-05-16T16:11:50.432Z,1.60
2019-05-16T16:14:20.998Z,1.70
2019-05-16T16:16:50.791Z,1.95
2019-05-16T16:19:20.631Z,1.80
2019-05-16T16:21:50.442Z,1.57
2019-05-16T16:24:20.622Z,2.27
2019-05-16T16:26:50.910Z,1.90
2019-05-16T16:29:21.409Z,1.65
2019-05-16T16:31:51.202Z,1.50
2019-05-16T16:34:22.505Z,2.02
2019-05-16T16:36:52.284Z,1.87
2019-05-16T16:39:23.118Z,2.10
2019-05-16T16:41:52.943Z,1.90
2019-05-16T16:44:22.819Z,2.02
2019-05-16T16:46:53.450Z,1.95
2019-05-16T16:49:23.293Z,2.25
2019-05-16T16:51:53.055Z,2.25
2019-05-16T16:54:23.701Z,2.10
2019-05-16T16:56:53.522Z,1.80
2019-05-16T16:59:23.318Z,1.70
2019-05-16T17:01:53.545Z,3.05
2019-05-16T17:04:23.483Z,3.27
2019-05-16T17:06:53.307Z,2.40
2019-05-16T17:09:23.597Z,1.95
2019-05-16T17:11:53.417Z,1.85
2019-05-16T17:14:26.296Z,1.92
2019-05-16T17:16:57.524Z,1.95
2019-05-16T17:19:27.654Z,1.90
2019-05-16T17:22:12.905Z,1.75
2019-05-16T17:24:29.035Z,1.92
2019-05-16T17:26:58.863Z,1.62
2019-05-16T17:29:30.291Z,2.02
2019-05-16T17:32:07.102Z,1.90
2019-05-16T17:34:32.556Z,1.60
2019-05-16T17:37:02.342Z,2.22
2019-05-16T17:39:33.040Z,1.90
2019-05-16T17:42:02.864Z,1.92
2019-05-16T17:44:32.639Z,1.62
2019-05-16T17:47:02.971Z,1.65
2019-05-16T17:49:32.777Z,1.80
2019-05-16T17:52:02.651Z,1.50
2019-05-16T17:54:32.815Z,1.40
2019-05-16T17:57:02.638Z,1.42
2019-05-16T17:59:32.444Z,1.70
2019-05-16T18:02:03.484Z,1.42
2019-05-16T18:04:33.773Z,1.40
2019-05-16T18:07:03.576Z,1.17
2019-05-16T18:09:36.760Z,1.37
2019-05-16T18:12:07.043Z,1.50
2019-05-16T18:14:37.421Z,1.57
2019-05-16T18:17:07.783Z,1.62
2019-05-16T18:19:38.415Z,1.75
2019-05-16T18:22:08.214Z,2.10
2019-05-16T18:24:39.190Z,2.60
2019-05-16T18:27:09.007Z,2.55
2019-05-16T18:29:38.811Z,2.17
2019-05-16T18:32:08.964Z,1.90
2019-05-16T18:34:38.976Z,1.50
2019-05-16T18:37:08.758Z,1.60
2019-05-16T18:39:39.197Z,1.60
2019-05-16T18:42:09.031Z,1.90
2019-05-16T18:44:38.957Z,1.70
2019-05-16T18:47:11.486Z,1.55
2019-05-16T18:49:41.567Z,1.50
2019-05-16T18:52:11.375Z,1.85
2019-05-16T18:54:41.777Z,1.42
2019-05-16T18:57:13.078Z,1.32
2019-05-16T18:59:42.866Z,1.30
2019-05-16T19:02:13.919Z,1.20
2019-05-16T19:04:43.770Z,1.52
2019-05-16T19:07:13.540Z,1.30
2019-05-16T19:09:43.600Z,1.60
2019-05-16T19:12:13.506Z,1.40
2019-05-16T19:14:43.408Z,1.45
2019-05-16T19:17:22.047Z,1.45
2019-05-16T19:19:46.497Z,1.60
2019-05-16T19:22:17.163Z,1.72
2019-05-16T19:24:48.865Z,1.80
2019-05-16T19:27:18.698Z,1.50
2019-05-16T19:29:50.375Z,1.60
2019-05-16T19:32:21.287Z,1.40
2019-05-16T19:34:51.133Z,1.52
2019-05-16T19:37:21.313Z,2.00
2019-05-16T19:39:51.385Z,1.80
2019-05-16T19:42:21.222Z,1.90
2019-05-16T19:44:51.898Z,1.70
2019-05-16T19:47:34.048Z,1.50
2019-05-16T19:49:53.144Z,1.77
2019-05-16T19:52:22.933Z,1.85
2019-05-16T19:54:53.653Z,1.70
2019-05-16T19:57:23.477Z,1.92
2019-05-16T19:59:53.337Z,1.98
2019-05-16T20:02:24.025Z,1.92
2019-05-16T20:04:56.159Z,2.00
2019-05-16T20:07:26.490Z,1.90
2019-05-16T20:09:56.498Z,2.17
2019-05-16T20:12:26.816Z,2.15
2019-05-16T20:15:07.575Z,2.30
2019-05-16T20:17:29.654Z,2.42
2019-05-16T20:19:59.472Z,1.72
2019-05-16T20:22:31.235Z,2.08
2019-05-16T20:25:01.880Z,2.00
2019-05-16T20:27:33.430Z,2.80
2019-05-16T20:30:06.525Z,2.52
2019-05-16T20:32:37.332Z,2.40
2019-05-16T20:35:09.461Z,3.33
2019-05-16T20:37:40.916Z,3.05
2019-05-16T20:40:34.095Z,3.62
2019-05-16T20:43:03.884Z,3.70
2019-05-16T20:45:36.201Z,3.62
2019-05-16T20:48:12.074Z,3.98
2019-05-16T20:50:38.349Z,4.53
2019-05-16T20:53:09.885Z,4.42
2019-05-16T20:55:39.991Z,4.20
2019-05-16T20:58:10.966Z,4.25
2019-05-16T21:00:41.955Z,4.45
2019-05-16T21:03:11.793Z,4.00
2019-05-16T21:05:42.055Z,4.53
2019-05-16T21:08:11.856Z,4.55
2019-05-16T21:10:41.759Z,4.40
2019-05-16T21:13:11.966Z,4.10
2019-05-16T21:15:42.334Z,4.58
2019-05-16T21:18:12.262Z,4.25
2019-05-16T21:20:42.062Z,4.53
2019-05-16T21:23:11.919Z,4.53
2019-05-16T21:25:43.728Z,4.33
2019-05-16T21:28:13.519Z,4.75
2019-05-16T21:30:44.421Z,4.33
2019-05-16T21:33:16.508Z,4.42
2019-05-16T21:35:47.105Z,4.62
2019-05-16T21:38:17.151Z,4.78
2019-05-16T21:40:48.775Z,4.60
2019-05-16T21:43:18.569Z,4.87
2019-05-16T21:45:49.289Z,4.72
2019-05-16T21:48:19.450Z,5.60
2019-05-16T21:50:51.256Z,4.62
2019-05-16T21:53:22.599Z,5.72
2019-05-16T21:55:56.270Z,7.12
2019-05-16T21:58:29.534Z,6.58
2019-05-16T22:00:59.569Z,7.37
2019-05-16T22:03:29.385Z,7.55
2019-05-16T22:05:59.283Z,5.80
2019-05-16T22:08:29.545Z,6.67
2019-05-16T22:10:59.452Z,6.20
2019-05-16T22:13:29.251Z,6.33
2019-05-16T22:15:59.877Z,5.67
2019-05-16T22:18:29.708Z,6.37
2019-05-16T22:21:01.091Z,5.78
2019-05-16T22:23:31.826Z,6.53
2019-05-16T22:26:02.035Z,6.05
2019-05-16T22:28:32.056Z,6.97
2019-05-16T22:31:01.884Z,6.85
2019-05-16T22:33:33.785Z,8.13
2019-05-16T22:36:03.576Z,7.17
2019-05-16T22:38:34.665Z,7.53
2019-05-16T22:41:06.809Z,6.47
2019-05-16T22:43:37.135Z,6.78
2019-05-16T22:46:09.919Z,6.42
2019-05-16T22:48:38.695Z,6.08
2019-05-16T22:51:08.493Z,7.22
2019-05-16T22:53:39.568Z,7.05
2019-05-16T22:56:09.403Z,7.75
2019-05-16T22:58:40.793Z,7.08
2019-05-16T23:01:11.685Z,6.62
2019-05-16T23:03:41.679Z,6.17
2019-05-16T23:06:11.963Z,6.85
2019-05-16T23:08:41.971Z,7.30
2019-05-16T23:11:11.896Z,7.08
2019-05-16T23:13:42.247Z,7.22
2019-05-16T23:16:12.109Z,7.28
2019-05-16T23:18:41.940Z,6.95
2019-05-16T23:21:11.746Z,7.00
2019-05-16T23:23:41.759Z,6.30
2019-05-16T23:26:11.724Z,6.90
2019-05-16T23:28:41.713Z,7.22
2019-05-16T23:31:12.534Z,8.18
2019-05-16T23:33:43.364Z,7.15
2019-05-16T23:36:13.175Z,6.80
2019-05-16T23:38:44.322Z,6.72
2019-05-16T23:41:14.148Z,7.08
2019-05-16T23:43:43.940Z,6.37
2019-05-16T23:46:16.386Z,7.12
2019-05-16T23:48:47.237Z,7.10
2019-05-16T23:51:17.312Z,6.67
2019-05-16T23:53:47.114Z,6.92
2019-05-16T23:56:16.948Z,7.12
2019-05-16T23:58:47.675Z,6.80
